createdAt,value
2019-05-09T00:00:23.325Z,0.24
2019-05-09T00:01:23.552Z,0.35
2019-05-09T00:02:24.179Z,0.61
2019-05-09T00:03:21.523Z,1.02
2019-05-09T00:04:23.090Z,1.15
2019-05-09T00:05:23.291Z,0.36
2019-05-09T00:06:23.775Z,0.74
2019-05-09T00:07:23.323Z,1.09
2019-05-09T00:08:23.092Z,1.34
2019-05-09T00:09:23.185Z,1.28
2019-05-09T00:10:37.544Z,0.92
2019-05-09T00:11:21.649Z,2.00
2019-05-09T00:12:23.404Z,1.69
2019-05-09T00:13:23.776Z,1.67
2019-05-09T00:14:23.767Z,1.59
2019-05-09T00:15:21.611Z,0.17
2019-05-09T00:16:23.466Z,0.00
2019-05-09T00:17:23.247Z,0.00
2019-05-09T00:18:23.307Z,0.62
2019-05-09T00:19:23.701Z,0.50
2019-05-09T00:20:23.812Z,1.43
2019-05-09T00:21:23.790Z,0.81
2019-05-09T00:22:23.899Z,1.17
2019-05-09T00:23:23.845Z,0.61
2019-05-09T00:24:23.800Z,0.41
2019-05-09T00:25:23.543Z,1.11
2019-05-09T00:26:23.554Z,2.14
2019-05-09T00:27:23.153Z,1.81
2019-05-09T00:28:23.568Z,1.19
2019-05-09T00:29:21.805Z,1.54
2019-05-09T00:30:23.168Z,2.24
2019-05-09T00:31:23.791Z,1.34
2019-05-09T00:32:23.790Z,0.74
2019-05-09T00:33:23.539Z,1.83
2019-05-09T00:34:23.411Z,1.13
2019-05-09T00:35:23.377Z,0.01
2019-05-09T00:36:23.238Z,0.88
2019-05-09T00:37:23.808Z,0.47
2019-05-09T00:38:23.833Z,0.00
2019-05-09T00:39:23.608Z,0.26
2019-05-09T00:40:23.706Z,0.53
2019-05-09T00:41:23.772Z,0.68
2019-05-09T00:42:23.983Z,0.76
2019-05-09T00:43:23.681Z,0.53
2019-05-09T00:44:23.243Z,0.59
2019-05-09T00:45:23.782Z,0.36
2019-05-09T00:46:23.637Z,0.10
2019-05-09T00:47:23.853Z,0.44
2019-05-09T00:48:23.072Z,1.74
2019-05-09T00:49:23.555Z,1.23
2019-05-09T00:50:23.539Z,0.93
2019-05-09T00:51:23.293Z,1.99
2019-05-09T00:52:23.466Z,0.76
2019-05-09T00:53:23.219Z,1.45
2019-05-09T00:54:23.916Z,1.70
2019-05-09T00:55:23.744Z,1.58
2019-05-09T00:56:23.751Z,0.84
2019-05-09T00:57:23.025Z,0.57
2019-05-09T00:58:24.047Z,0.63
2019-05-09T00:59:23.985Z,1.96
2019-05-09T01:00:24.109Z,2.32
2019-05-09T01:01:23.739Z,1.20
2019-05-09T01:02:23.543Z,2.31
2019-05-09T01:03:23.420Z,1.51
2019-05-09T01:04:23.962Z,1.35
2019-05-09T01:05:23.774Z,1.70
2019-05-09T01:06:23.782Z,2.00
2019-05-09T01:07:23.256Z,1.61
2019-05-09T01:08:24.065Z,0.60
2019-05-09T01:09:21.468Z,1.89
2019-05-09T01:10:23.532Z,2.21
2019-05-09T01:11:23.973Z,1.63
2019-05-09T01:12:23.528Z,1.52
2019-05-09T01:13:23.187Z,1.21
2019-05-09T01:14:23.435Z,2.07
2019-05-09T01:15:23.821Z,1.46
2019-05-09T01:16:23.906Z,1.08
2019-05-09T01:17:23.924Z,1.40
2019-05-09T01:18:23.636Z,0.92
2019-05-09T01:19:23.296Z,2.79
2019-05-09T01:20:24.015Z,0.99
2019-05-09T01:21:23.792Z,0.18
2019-05-09T01:22:23.585Z,1.05
2019-05-09T01:23:23.375Z,1.93
2019-05-09T01:24:23.270Z,0.69
2019-05-09T01:25:21.489Z,1.85
2019-05-09T01:26:23.896Z,2.86
2019-05-09T01:27:23.340Z,2.01
2019-05-09T01:28:23.238Z,0.82
2019-05-09T01:29:23.038Z,1.80
2019-05-09T01:30:23.913Z,0.95
2019-05-09T01:31:23.777Z,0.77
2019-05-09T01:32:23.708Z,1.50
2019-05-09T01:33:21.683Z,0.56
2019-05-09T01:34:23.792Z,0.99
2019-05-09T01:35:23.300Z,0.88
2019-05-09T01:36:23.483Z,1.85
2019-05-09T01:37:23.731Z,2.00
2019-05-09T01:38:23.205Z,0.76
2019-05-09T01:39:21.595Z,0.46
2019-05-09T01:40:23.874Z,0.90
2019-05-09T01:41:29.802Z,0.36
2019-05-09T01:42:23.314Z,0.81
2019-05-09T01:43:21.624Z,1.86
2019-05-09T01:44:23.823Z,0.16
2019-05-09T01:45:23.552Z,1.02
2019-05-09T01:46:23.580Z,1.46
2019-05-09T01:47:23.524Z,1.42
2019-05-09T01:48:23.429Z,1.62
2019-05-09T01:49:23.244Z,1.09
2019-05-09T01:50:23.344Z,1.82
2019-05-09T01:51:23.334Z,0.35
2019-05-09T01:52:23.143Z,0.74
2019-05-09T01:53:23.808Z,0.53
2019-05-09T01:54:23.630Z,0.03
2019-05-09T01:55:23.419Z,0.40
2019-05-09T01:56:23.484Z,1.95
2019-05-09T01:57:23.226Z,2.09
2019-05-09T01:58:23.272Z,1.68
2019-05-09T01:59:21.642Z,1.00
2019-05-09T02:00:23.760Z,0.64
2019-05-09T02:01:23.977Z,0.39
2019-05-09T02:02:23.519Z,2.10
2019-05-09T02:03:23.346Z,1.66
2019-05-09T02:04:24.072Z,1.39
2019-05-09T02:05:23.945Z,1.32
2019-05-09T02:06:24.118Z,0.81
2019-05-09T02:07:23.661Z,1.38
2019-05-09T02:08:23.618Z,1.80
2019-05-09T02:09:23.464Z,1.40
2019-05-09T02:10:23.242Z,0.67
2019-05-09T02:11:23.631Z,0.86
2019-05-09T02:12:21.867Z,1.29
2019-05-09T02:13:23.133Z,1.46
2019-05-09T02:14:23.875Z,1.20
2019-05-09T02:15:23.602Z,1.72
2019-05-09T02:16:23.457Z,1.50
2019-05-09T02:17:23.239Z,0.68
2019-05-09T02:18:23.082Z,0.20
2019-05-09T02:19:23.991Z,0.03
2019-05-09T02:20:24.053Z,0.49
2019-05-09T02:21:23.837Z,1.09
2019-05-09T02:22:23.574Z,0.41
2019-05-09T02:23:23.327Z,0.67
2019-05-09T02:24:23.437Z,0.05
2019-05-09T02:25:24.067Z,0.00
2019-05-09T02:26:23.867Z,0.24
2019-05-09T02:27:23.738Z,0.00
2019-05-09T02:28:23.478Z,0.02
2019-05-09T02:29:23.184Z,0.88
2019-05-09T02:30:25.086Z,1.07
2019-05-09T02:31:24.323Z,0.24
2019-05-09T02:32:23.999Z,1.29
2019-05-09T02:33:24.822Z,1.45
2019-05-09T02:34:24.530Z,1.49
2019-05-09T02:35:21.747Z,1.49
2019-05-09T02:36:21.837Z,1.01
2019-05-09T02:37:21.799Z,1.78
2019-05-09T02:38:21.740Z,0.38
2019-05-09T02:39:21.689Z,0.43
2019-05-09T02:40:21.726Z,0.48
2019-05-09T02:41:21.608Z,0.43
2019-05-09T02:42:21.740Z,0.69
2019-05-09T02:43:21.640Z,1.08
2019-05-09T02:44:21.821Z,0.23
2019-05-09T02:45:21.624Z,0.00
2019-05-09T02:46:21.782Z,0.12
2019-05-09T02:47:21.888Z,0.72
2019-05-09T02:48:21.715Z,0.99
2019-05-09T02:49:21.654Z,1.01
2019-05-09T02:50:21.786Z,0.71
2019-05-09T02:51:21.784Z,0.70
2019-05-09T02:52:21.933Z,0.23
2019-05-09T02:53:21.698Z,0.65
2019-05-09T02:54:21.660Z,0.53
2019-05-09T02:55:21.694Z,0.54
2019-05-09T02:56:21.690Z,0.02
2019-05-09T02:57:29.079Z,1.11
2019-05-09T02:58:21.800Z,1.00
2019-05-09T02:59:21.732Z,0.12
2019-05-09T03:00:21.747Z,0.10
2019-05-09T03:01:21.758Z,0.06
2019-05-09T03:02:21.756Z,0.13
2019-05-09T03:03:21.687Z,0.56
2019-05-09T03:04:21.733Z,0.54
2019-05-09T03:05:21.800Z,0.92
2019-05-09T03:06:21.889Z,0.96
2019-05-09T03:07:21.737Z,0.56
2019-05-09T03:08:21.920Z,0.57
2019-05-09T03:09:21.685Z,0.17
2019-05-09T03:10:21.749Z,0.30
2019-05-09T03:11:21.665Z,0.16
2019-05-09T03:12:30.835Z,0.09
2019-05-09T03:13:21.647Z,1.13
2019-05-09T03:14:21.755Z,0.11
2019-05-09T03:15:21.599Z,0.39
2019-05-09T03:16:21.765Z,0.02
2019-05-09T03:17:21.696Z,0.34
2019-05-09T03:18:21.783Z,0.02
2019-05-09T03:19:21.858Z,0.01
2019-05-09T03:20:21.860Z,0.17
2019-05-09T03:21:21.713Z,0.90
2019-05-09T03:22:21.697Z,1.09
2019-05-09T03:23:21.701Z,0.64
2019-05-09T03:24:21.782Z,0.07
2019-05-09T03:25:21.717Z,0.42
2019-05-09T03:26:21.735Z,0.79
2019-05-09T03:27:21.757Z,0.24
2019-05-09T03:28:21.746Z,0.72
2019-05-09T03:29:21.613Z,0.04
2019-05-09T03:30:21.842Z,0.07
2019-05-09T03:31:21.766Z,0.30
2019-05-09T03:32:21.856Z,0.91
2019-05-09T03:33:21.779Z,1.31
2019-05-09T03:34:21.768Z,1.08
2019-05-09T03:35:21.707Z,0.79
2019-05-09T03:36:21.766Z,1.14
2019-05-09T03:37:21.841Z,1.08
2019-05-09T03:38:21.688Z,2.09
2019-05-09T03:39:21.748Z,1.14
2019-05-09T03:40:21.737Z,1.21
2019-05-09T03:41:21.951Z,0.44
2019-05-09T03:42:36.489Z,0.72
2019-05-09T03:43:21.756Z,0.84
2019-05-09T03:44:21.757Z,1.05
2019-05-09T03:45:21.768Z,1.63
2019-05-09T03:46:21.759Z,0.67
2019-05-09T03:47:21.798Z,0.71
2019-05-09T03:48:21.722Z,0.54
2019-05-09T03:49:21.817Z,0.88
2019-05-09T03:50:21.806Z,0.91
2019-05-09T03:51:21.830Z,0.02
2019-05-09T03:52:21.952Z,0.32
2019-05-09T03:53:21.765Z,0.14
2019-05-09T03:54:21.701Z,1.16
2019-05-09T03:55:21.660Z,1.33
2019-05-09T03:56:21.735Z,0.48
2019-05-09T03:57:21.775Z,0.56
2019-05-09T03:58:21.774Z,1.73
2019-05-09T03:59:21.802Z,1.87
2019-05-09T04:00:21.728Z,0.86
2019-05-09T04:01:21.775Z,1.15
2019-05-09T04:02:21.812Z,0.27
2019-05-09T04:03:21.892Z,0.52
2019-05-09T04:04:21.820Z,0.28
2019-05-09T04:05:21.816Z,0.80
2019-05-09T04:06:21.675Z,0.48
2019-05-09T04:07:21.777Z,1.96
2019-05-09T04:08:21.716Z,1.57
2019-05-09T04:09:21.833Z,1.08
2019-05-09T04:10:21.826Z,1.47
2019-05-09T04:11:21.719Z,1.17
2019-05-09T04:12:21.763Z,1.03
2019-05-09T04:13:21.906Z,0.55
2019-05-09T04:14:21.895Z,0.53
2019-05-09T04:15:21.799Z,0.64
2019-05-09T04:16:21.720Z,0.05
2019-05-09T04:17:21.848Z,0.03
2019-05-09T04:18:21.785Z,0.39
2019-05-09T04:19:21.769Z,0.31
2019-05-09T04:20:21.711Z,0.09
2019-05-09T04:21:21.754Z,0.05
2019-05-09T04:22:21.794Z,0.07
2019-05-09T04:23:21.832Z,0.26
2019-05-09T04:24:21.768Z,1.20
2019-05-09T04:25:21.867Z,0.52
2019-05-09T04:26:21.906Z,0.98
2019-05-09T04:27:21.804Z,0.94
2019-05-09T04:28:21.816Z,0.98
2019-05-09T04:29:21.813Z,1.33
2019-05-09T04:30:21.794Z,1.17
2019-05-09T04:31:21.823Z,0.88
2019-05-09T04:32:21.895Z,1.32
2019-05-09T04:33:21.671Z,0.55
2019-05-09T04:34:21.817Z,0.04
2019-05-09T04:35:21.717Z,0.39
2019-05-09T04:36:21.971Z,0.68
2019-05-09T04:37:21.871Z,2.08
2019-05-09T04:38:21.770Z,1.80
2019-05-09T04:39:23.695Z,1.66
2019-05-09T04:40:21.793Z,1.89
2019-05-09T04:41:23.994Z,0.88
2019-05-09T04:42:21.811Z,1.24
2019-05-09T04:43:27.183Z,1.69
2019-05-09T04:44:21.970Z,1.98
2019-05-09T04:45:21.830Z,1.75
2019-05-09T05:02:32.286Z,1.73
2019-05-09T05:03:29.018Z,1.74
2019-05-09T05:04:29.179Z,2.49
2019-05-09T05:05:29.019Z,1.48
2019-05-09T05:06:28.979Z,0.98
2019-05-09T05:07:29.020Z,0.70
2019-05-09T05:08:29.138Z,0.95
2019-05-09T05:09:28.940Z,2.15
2019-05-09T05:10:29.004Z,2.07
2019-05-09T05:11:28.971Z,1.80
2019-05-09T05:12:29.293Z,1.52
2019-05-09T05:13:29.693Z,0.64
2019-05-09T05:14:29.122Z,0.92
2019-05-09T05:15:29.125Z,1.59
2019-05-09T05:16:29.036Z,0.86
2019-05-09T05:17:30.765Z,2.34
2019-05-09T05:18:29.055Z,2.72
2019-05-09T05:19:31.403Z,2.38
2019-05-09T05:20:29.115Z,1.78
2019-05-09T05:21:29.626Z,1.33
2019-05-09T05:22:29.126Z,0.96
2019-05-09T05:23:29.309Z,0.43
2019-05-09T05:24:28.969Z,1.18
2019-05-09T05:25:29.202Z,1.29
2019-05-09T05:26:28.979Z,2.04
2019-05-09T05:27:29.219Z,1.46
2019-05-09T05:28:29.110Z,1.39
2019-05-09T05:29:29.080Z,2.02
2019-05-09T05:30:29.008Z,2.73
2019-05-09T05:31:29.241Z,2.70
2019-05-09T05:32:29.025Z,3.49
2019-05-09T05:33:29.216Z,2.74
2019-05-09T05:34:29.110Z,3.22
2019-05-09T05:35:29.097Z,2.30
2019-05-09T05:36:29.081Z,3.35
2019-05-09T05:37:29.098Z,3.09
2019-05-09T05:38:29.335Z,3.73
2019-05-09T05:39:29.076Z,2.55
2019-05-09T05:40:33.336Z,2.18
2019-05-09T05:41:29.085Z,2.74
2019-05-09T05:42:29.222Z,3.73
2019-05-09T05:43:43.308Z,4.08
2019-05-09T05:44:29.314Z,1.42
2019-05-09T05:45:29.119Z,2.32
2019-05-09T05:46:29.232Z,3.32
2019-05-09T05:47:29.433Z,2.33
2019-05-09T05:48:29.742Z,2.53
2019-05-09T05:49:29.224Z,2.88
2019-05-09T05:50:29.212Z,2.27
2019-05-09T05:51:29.181Z,2.07
2019-05-09T05:52:29.113Z,0.96
2019-05-09T05:53:28.955Z,0.65
2019-05-09T05:54:29.155Z,0.40
2019-05-09T05:55:29.586Z,1.36
2019-05-09T05:56:29.142Z,1.15
2019-05-09T05:57:29.275Z,0.88
2019-05-09T05:58:29.162Z,1.56
2019-05-09T05:59:29.196Z,2.28
2019-05-09T06:00:29.035Z,1.37
2019-05-09T06:01:29.134Z,1.97
2019-05-09T06:02:29.149Z,2.29
2019-05-09T06:03:30.146Z,0.73
2019-05-09T06:04:29.222Z,0.69
2019-05-09T06:05:30.126Z,0.43
2019-05-09T06:06:29.294Z,1.05
2019-05-09T06:07:29.116Z,2.68
2019-05-09T06:08:29.091Z,1.62
2019-05-09T06:09:29.168Z,0.64
2019-05-09T06:10:29.201Z,0.65
2019-05-09T06:11:29.111Z,0.83
2019-05-09T06:12:29.221Z,1.40
2019-05-09T06:13:29.025Z,0.58
2019-05-09T06:14:29.431Z,1.12
2019-05-09T06:15:29.183Z,1.36
2019-05-09T06:16:29.094Z,1.66
2019-05-09T06:17:29.258Z,0.99
2019-05-09T06:18:29.052Z,0.65
2019-05-09T06:19:29.202Z,0.51
2019-05-09T06:20:29.161Z,0.35
2019-05-09T06:21:29.221Z,1.60
2019-05-09T06:22:29.173Z,0.90
2019-05-09T06:23:29.110Z,0.05
2019-05-09T06:24:29.311Z,0.04
2019-05-09T06:25:30.541Z,0.58
2019-05-09T06:26:29.496Z,0.79
2019-05-09T06:27:30.170Z,0.71
2019-05-09T06:28:29.399Z,0.05
2019-05-09T06:29:29.153Z,0.98
2019-05-09T06:30:29.293Z,2.59
2019-05-09T06:31:29.318Z,2.36
2019-05-09T06:32:29.094Z,2.79
2019-05-09T06:33:29.177Z,2.75
2019-05-09T06:34:29.667Z,1.46
2019-05-09T06:35:29.225Z,1.06
2019-05-09T06:36:29.093Z,1.02
2019-05-09T06:37:29.211Z,0.62
2019-05-09T06:38:29.142Z,0.36
2019-05-09T06:39:29.472Z,0.40
2019-05-09T06:40:29.146Z,0.64
2019-05-09T06:41:29.245Z,0.79
2019-05-09T06:42:29.600Z,0.67
2019-05-09T06:43:29.359Z,1.24
2019-05-09T06:44:29.195Z,1.16
2019-05-09T06:45:29.255Z,0.36
2019-05-09T06:46:29.165Z,0.60
2019-05-09T06:47:29.324Z,0.49
2019-05-09T06:48:29.089Z,0.49
2019-05-09T06:49:31.883Z,0.85
2019-05-09T06:50:29.196Z,1.01
2019-05-09T06:51:29.240Z,2.50
2019-05-09T06:52:29.113Z,2.31
2019-05-09T06:53:29.231Z,2.41
2019-05-09T06:54:29.157Z,1.98
2019-05-09T06:55:29.744Z,2.23
2019-05-09T06:56:29.117Z,1.63
2019-05-09T06:57:29.164Z,0.82
2019-05-09T06:58:29.161Z,0.62
2019-05-09T06:59:29.202Z,0.44
2019-05-09T07:00:29.298Z,0.84
2019-05-09T07:01:29.264Z,1.00
2019-05-09T07:02:29.137Z,1.18
2019-05-09T07:03:29.180Z,1.01
2019-05-09T07:04:29.252Z,1.07
2019-05-09T07:05:29.300Z,0.38
2019-05-09T07:06:29.203Z,1.29
2019-05-09T07:07:29.218Z,0.61
2019-05-09T07:08:31.405Z,1.48
2019-05-09T07:09:29.327Z,0.78
2019-05-09T07:10:29.150Z,0.70
2019-05-09T07:11:29.276Z,0.40
2019-05-09T07:12:29.348Z,0.33
2019-05-09T07:13:29.777Z,0.08
2019-05-09T07:14:32.641Z,0.58
2019-05-09T07:15:29.203Z,1.45
2019-05-09T07:16:29.194Z,0.88
2019-05-09T07:17:31.930Z,1.23
2019-05-09T07:18:29.202Z,1.02
2019-05-09T07:19:29.288Z,1.06
2019-05-09T07:20:29.192Z,1.01
2019-05-09T07:21:29.305Z,0.29
2019-05-09T07:22:29.364Z,1.99
2019-05-09T07:23:29.414Z,1.26
2019-05-09T07:24:29.226Z,0.76
2019-05-09T07:25:29.650Z,1.41
2019-05-09T07:26:29.139Z,1.13
2019-05-09T07:27:29.151Z,1.73
2019-05-09T07:28:29.165Z,0.43
2019-05-09T07:29:29.294Z,1.23
2019-05-09T07:30:29.214Z,1.38
2019-05-09T07:31:29.343Z,1.67
2019-05-09T07:32:29.273Z,1.95
2019-05-09T07:33:29.263Z,2.35
2019-05-09T07:34:29.403Z,2.14
2019-05-09T07:35:29.148Z,1.21
2019-05-09T07:36:29.203Z,1.71
2019-05-09T07:37:29.301Z,1.76
2019-05-09T07:38:29.283Z,1.53
2019-05-09T07:39:29.272Z,0.74
2019-05-09T07:40:30.703Z,1.27
2019-05-09T07:41:29.187Z,1.03
2019-05-09T07:42:29.230Z,1.22
2019-05-09T07:43:31.448Z,0.45
2019-05-09T07:44:44.232Z,1.46
2019-05-09T07:45:29.292Z,4.30
2019-05-09T07:46:29.142Z,4.28
2019-05-09T07:47:29.389Z,1.00
2019-05-09T07:48:29.237Z,2.94
2019-05-09T07:49:29.306Z,2.76
2019-05-09T07:50:29.292Z,2.04
2019-05-09T07:51:29.262Z,2.25
2019-05-09T07:52:29.228Z,3.35
2019-05-09T07:53:30.103Z,1.23
2019-05-09T07:54:31.528Z,2.42
2019-05-09T07:55:29.306Z,3.91
2019-05-09T07:56:29.284Z,3.33
2019-05-09T07:57:29.297Z,1.16
2019-05-09T07:58:29.205Z,1.92
2019-05-09T07:59:29.530Z,0.47
2019-05-09T08:00:29.216Z,0.97
2019-05-09T08:01:29.288Z,1.03
2019-05-09T08:02:29.269Z,2.14
2019-05-09T08:03:29.309Z,1.71
2019-05-09T08:04:29.387Z,1.28
2019-05-09T08:05:29.388Z,1.28
2019-05-09T08:06:29.425Z,0.18
2019-05-09T08:07:29.390Z,0.62
2019-05-09T08:08:29.313Z,2.11
2019-05-09T08:09:29.367Z,0.94
2019-05-09T08:10:32.928Z,0.43
2019-05-09T08:11:32.210Z,3.95
2019-05-09T08:12:29.213Z,1.94
2019-05-09T08:13:29.255Z,1.16
2019-05-09T08:14:29.399Z,0.72
2019-05-09T08:15:29.228Z,0.61
2019-05-09T08:16:29.225Z,0.39
2019-05-09T08:17:29.294Z,0.64
2019-05-09T08:18:29.504Z,0.64
2019-05-09T08:19:29.230Z,1.06
2019-05-09T08:20:29.383Z,2.20
2019-05-09T08:21:29.305Z,0.92
2019-05-09T08:22:32.251Z,1.09
2019-05-09T08:23:29.449Z,0.86
2019-05-09T08:24:29.540Z,1.38
2019-05-09T08:25:29.593Z,0.53
2019-05-09T08:26:29.975Z,1.61
2019-05-09T08:27:30.374Z,1.71
2019-05-09T08:28:29.309Z,1.88
2019-05-09T08:29:29.387Z,0.73
2019-05-09T08:30:35.493Z,1.18
2019-05-09T08:31:29.301Z,2.48
2019-05-09T08:32:29.311Z,1.03
2019-05-09T08:33:29.419Z,0.32
2019-05-09T08:34:29.320Z,1.50
2019-05-09T08:35:29.293Z,1.69
2019-05-09T08:36:29.369Z,1.55
2019-05-09T08:37:29.416Z,2.47
2019-05-09T08:38:29.522Z,0.49
2019-05-09T08:39:29.379Z,1.37
2019-05-09T08:40:29.312Z,0.81
2019-05-09T08:41:29.534Z,1.22
2019-05-09T08:42:29.438Z,0.98
2019-05-09T08:43:29.307Z,1.19
2019-05-09T08:44:31.149Z,0.62
2019-05-09T08:45:31.438Z,0.72
2019-05-09T08:46:29.508Z,1.44
2019-05-09T08:47:29.337Z,1.15
2019-05-09T08:48:29.261Z,2.89
2019-05-09T08:49:29.306Z,0.95
2019-05-09T08:50:29.458Z,0.95
2019-05-09T08:51:36.818Z,1.33
2019-05-09T08:52:29.253Z,3.86
2019-05-09T08:53:29.428Z,4.20
2019-05-09T08:54:29.293Z,2.92
2019-05-09T08:55:29.493Z,3.14
2019-05-09T08:56:29.406Z,4.11
2019-05-09T08:57:29.614Z,2.85
2019-05-09T08:58:29.325Z,1.42
2019-05-09T08:59:29.401Z,1.79
2019-05-09T09:00:29.245Z,3.13
2019-05-09T09:01:47.863Z,2.91
2019-05-09T09:02:29.382Z,2.36
2019-05-09T09:03:29.270Z,2.61
2019-05-09T09:04:29.513Z,1.46
2019-05-09T09:05:29.266Z,2.20
2019-05-09T09:06:29.412Z,2.80
2019-05-09T09:07:29.878Z,2.60
2019-05-09T09:08:29.341Z,2.62
2019-05-09T09:09:29.369Z,1.76
2019-05-09T09:10:29.330Z,5.45
2019-05-09T09:11:29.493Z,4.92
2019-05-09T09:12:34.212Z,7.15
2019-05-09T09:13:29.690Z,4.08
2019-05-09T09:14:29.449Z,7.43
2019-05-09T09:15:55.894Z,5.13
2019-05-09T09:16:29.351Z,7.55
2019-05-09T09:17:29.529Z,3.71
2019-05-09T09:18:29.460Z,2.76
2019-05-09T09:19:29.389Z,3.14
2019-05-09T09:20:29.302Z,4.82
2019-05-09T09:21:29.380Z,2.70
2019-05-09T09:22:29.382Z,1.68
2019-05-09T09:23:42.803Z,1.10
2019-05-09T09:24:29.495Z,1.38
2019-05-09T09:25:29.248Z,3.07
2019-05-09T09:26:29.836Z,4.05
2019-05-09T09:27:29.397Z,1.99
2019-05-09T09:28:29.392Z,7.82
2019-05-09T09:29:29.505Z,2.94
2019-05-09T09:30:29.648Z,4.83
2019-05-09T09:31:29.336Z,5.10
2019-05-09T09:32:29.411Z,4.15
2019-05-09T09:33:29.311Z,3.64
2019-05-09T09:34:30.042Z,1.91
2019-05-09T09:35:29.436Z,7.16
2019-05-09T09:36:29.226Z,5.52
2019-05-09T09:37:44.716Z,4.72
2019-05-09T09:38:29.421Z,3.56
2019-05-09T09:39:31.252Z,2.45
2019-05-09T09:40:29.651Z,2.61
2019-05-09T09:41:29.409Z,3.13
2019-05-09T09:42:29.433Z,2.34
2019-05-09T09:43:29.408Z,2.10
2019-05-09T09:44:29.487Z,3.62
2019-05-09T09:45:29.553Z,3.24
2019-05-09T09:46:29.685Z,2.19
2019-05-09T09:47:29.323Z,2.09
2019-05-09T09:48:29.638Z,3.46
2019-05-09T09:49:29.661Z,4.67
2019-05-09T09:50:29.350Z,2.23
2019-05-09T09:51:29.468Z,1.66
2019-05-09T09:52:32.107Z,3.09
2019-05-09T09:53:29.400Z,2.48
2019-05-09T09:54:29.397Z,3.41
2019-05-09T09:55:29.499Z,3.32
2019-05-09T09:56:29.507Z,2.50
2019-05-09T09:57:29.970Z,2.46
2019-05-09T09:58:29.459Z,4.04
2019-05-09T09:59:29.474Z,4.33
2019-05-09T10:00:29.414Z,4.50
2019-05-09T10:01:29.574Z,2.16
2019-05-09T10:02:29.333Z,2.37
2019-05-09T10:03:29.353Z,2.57
2019-05-09T10:04:29.720Z,4.79
2019-05-09T10:05:29.345Z,6.06
2019-05-09T10:06:29.431Z,5.26
2019-05-09T10:07:29.368Z,4.70
2019-05-09T10:08:29.492Z,1.32
2019-05-09T10:09:29.625Z,3.56
2019-05-09T10:10:29.397Z,3.01
2019-05-09T10:11:29.555Z,5.82
2019-05-09T10:12:29.577Z,3.32
2019-05-09T10:13:29.406Z,2.68
2019-05-09T10:14:29.497Z,3.29
2019-05-09T10:15:29.444Z,5.14
2019-05-09T10:16:32.709Z,5.20
2019-05-09T10:17:29.595Z,4.49
2019-05-09T10:18:29.420Z,4.51
2019-05-09T10:19:29.731Z,5.10
2019-05-09T10:20:29.396Z,8.51
2019-05-09T10:21:29.426Z,7.36
2019-05-09T10:22:29.418Z,6.44
2019-05-09T10:23:29.596Z,6.14
2019-05-09T10:24:29.499Z,7.34
2019-05-09T10:25:29.413Z,7.02
2019-05-09T10:26:29.442Z,5.75
2019-05-09T10:27:29.410Z,7.39
2019-05-09T10:28:30.200Z,5.46
2019-05-09T10:29:29.633Z,2.70
2019-05-09T10:30:31.930Z,4.94
2019-05-09T10:31:29.373Z,2.36
2019-05-09T10:32:29.484Z,5.00
2019-05-09T10:33:29.466Z,5.44
2019-05-09T10:34:29.563Z,10.05
2019-05-09T10:35:29.391Z,4.51
2019-05-09T10:36:29.439Z,5.42
2019-05-09T10:37:29.500Z,4.26
2019-05-09T10:38:29.444Z,4.20
2019-05-09T10:39:29.469Z,5.11
2019-05-09T10:40:29.488Z,6.79
2019-05-09T10:41:29.541Z,6.95
2019-05-09T10:42:29.329Z,7.19
2019-05-09T10:43:35.587Z,8.37
2019-05-09T10:44:29.520Z,4.29
2019-05-09T10:45:29.451Z,6.55
2019-05-09T10:46:47.561Z,4.86
2019-05-09T10:47:29.461Z,3.37
2019-05-09T10:48:29.524Z,4.69
2019-05-09T10:49:29.580Z,5.35
2019-05-09T10:50:34.178Z,8.24
2019-05-09T10:51:29.551Z,4.33
2019-05-09T10:52:29.513Z,5.92
2019-05-09T10:53:31.510Z,5.44
2019-05-09T10:54:29.487Z,3.65
2019-05-09T10:55:29.599Z,3.49
2019-05-09T10:56:29.714Z,2.63
2019-05-09T10:57:31.472Z,4.03
2019-05-09T10:58:29.570Z,6.58
2019-05-09T10:59:29.668Z,5.00
2019-05-09T11:00:29.479Z,4.28
2019-05-09T11:01:29.773Z,5.27
2019-05-09T11:02:29.495Z,4.79
2019-05-09T11:03:29.675Z,6.56
2019-05-09T11:04:29.548Z,5.25
2019-05-09T11:05:29.590Z,5.64
2019-05-09T11:06:29.588Z,5.13
2019-05-09T11:07:29.440Z,6.81
2019-05-09T11:08:30.778Z,5.50
2019-05-09T11:09:29.550Z,4.09
2019-05-09T11:10:32.558Z,4.73
2019-05-09T11:11:29.627Z,8.63
2019-05-09T11:12:29.512Z,4.64
2019-05-09T11:13:29.599Z,3.78
2019-05-09T11:14:36.926Z,8.12
2019-05-09T11:15:29.533Z,3.80
2019-05-09T11:16:41.957Z,3.42
2019-05-09T11:17:29.589Z,4.94
2019-05-09T11:18:29.486Z,5.89
2019-05-09T11:19:30.109Z,8.01
2019-05-09T11:20:29.682Z,7.06
2019-05-09T11:21:29.570Z,11.87
2019-05-09T11:22:29.509Z,8.34
2019-05-09T11:23:29.525Z,10.46
2019-05-09T11:24:41.077Z,10.54
2019-05-09T11:25:29.638Z,11.00
2019-05-09T11:26:29.485Z,5.74
2019-05-09T11:27:29.518Z,6.05
2019-05-09T11:28:29.500Z,7.84
2019-05-09T11:29:29.603Z,8.11
2019-05-09T11:30:29.507Z,5.28
2019-05-09T11:31:29.825Z,6.74
2019-05-09T11:32:29.682Z,7.86
2019-05-09T11:33:29.803Z,8.99
2019-05-09T11:34:29.612Z,8.01
2019-05-09T11:35:29.573Z,4.10
2019-05-09T11:36:29.698Z,5.26
2019-05-09T11:37:29.462Z,5.81
2019-05-09T11:38:36.089Z,4.47
2019-05-09T11:39:36.555Z,5.27
2019-05-09T11:40:29.471Z,7.75
2019-05-09T11:41:30.247Z,6.52
2019-05-09T11:42:33.287Z,8.86
2019-05-09T11:43:29.859Z,6.98
2019-05-09T11:44:29.623Z,5.32
2019-05-09T11:45:29.513Z,3.58
2019-05-09T11:46:29.524Z,4.94
2019-05-09T11:47:38.137Z,6.45
2019-05-09T11:48:29.611Z,5.63
2019-05-09T11:49:29.678Z,3.20
2019-05-09T11:50:29.976Z,5.99
2019-05-09T11:51:29.601Z,1.61
2019-05-09T11:52:30.527Z,5.92
2019-05-09T11:53:29.582Z,6.77
2019-05-09T11:54:29.637Z,7.64
2019-05-09T11:55:35.637Z,6.14
2019-05-09T11:56:29.524Z,4.63
2019-05-09T11:57:31.577Z,6.19
2019-05-09T11:58:29.623Z,5.07
2019-05-09T11:59:29.615Z,5.79
2019-05-09T12:00:30.153Z,11.22
2019-05-09T12:01:29.558Z,9.65
2019-05-09T12:02:29.823Z,4.50
2019-05-09T12:03:30.600Z,9.09
2019-05-09T12:04:29.644Z,8.07
2019-05-09T12:05:29.579Z,8.77
2019-05-09T12:06:29.559Z,5.81
2019-05-09T12:07:29.880Z,7.18
2019-05-09T12:08:29.609Z,4.77
2019-05-09T12:09:29.680Z,5.01
2019-05-09T12:10:29.637Z,7.64
2019-05-09T12:11:29.663Z,6.78
2019-05-09T12:12:29.654Z,7.70
2019-05-09T12:13:29.511Z,4.97
2019-05-09T12:14:29.622Z,9.47
2019-05-09T12:15:29.555Z,11.51
2019-05-09T12:16:29.699Z,8.01
2019-05-09T12:17:48.226Z,8.87
2019-05-09T12:18:29.590Z,7.02
2019-05-09T12:19:29.734Z,5.98
2019-05-09T12:20:30.954Z,6.13
2019-05-09T12:21:29.484Z,9.30
2019-05-09T12:22:29.586Z,5.84
2019-05-09T12:23:29.627Z,6.99
2019-05-09T12:24:29.773Z,6.84
2019-05-09T12:25:29.675Z,5.73
2019-05-09T12:26:29.663Z,6.97
2019-05-09T12:27:29.843Z,6.98
2019-05-09T12:28:29.573Z,6.16
2019-05-09T12:29:29.737Z,5.19
2019-05-09T12:30:29.652Z,4.16
2019-05-09T12:31:30.380Z,4.04
2019-05-09T12:32:29.681Z,5.44
2019-05-09T12:33:33.103Z,4.71
2019-05-09T12:34:29.794Z,6.74
2019-05-09T12:35:29.694Z,7.26
2019-05-09T12:36:29.755Z,6.79
2019-05-09T12:37:29.805Z,7.47
2019-05-09T12:38:29.635Z,9.16
2019-05-09T12:39:29.848Z,8.86
2019-05-09T12:40:29.751Z,8.00
2019-05-09T12:41:31.501Z,3.39
2019-05-09T12:42:29.927Z,6.13
2019-05-09T12:43:29.668Z,5.97
2019-05-09T12:44:30.935Z,5.62
2019-05-09T12:45:29.735Z,4.54
2019-05-09T12:46:29.689Z,4.50
2019-05-09T12:47:29.735Z,3.76
2019-05-09T12:48:29.731Z,6.75
2019-05-09T12:49:29.726Z,6.25
2019-05-09T12:50:29.885Z,5.28
2019-05-09T12:51:29.743Z,4.81
2019-05-09T12:52:29.758Z,4.12
2019-05-09T12:53:29.812Z,5.21
2019-05-09T12:54:29.683Z,5.55
2019-05-09T12:55:29.650Z,7.84
2019-05-09T12:56:29.706Z,10.37
2019-05-09T12:57:29.717Z,12.83
2019-05-09T12:58:29.797Z,10.21
2019-05-09T12:59:44.557Z,6.50
2019-05-09T13:00:29.831Z,4.14
2019-05-09T13:01:29.871Z,7.37
2019-05-09T13:02:29.856Z,7.30
2019-05-09T13:03:29.851Z,10.54
2019-05-09T13:04:30.061Z,7.05
2019-05-09T13:05:29.675Z,11.30
2019-05-09T13:06:29.968Z,8.00
2019-05-09T13:07:29.949Z,7.13
2019-05-09T13:08:29.683Z,3.56
2019-05-09T13:09:29.815Z,8.86
2019-05-09T13:10:29.658Z,11.06
2019-05-09T13:11:29.794Z,11.17
2019-05-09T13:12:29.832Z,7.77
2019-05-09T13:13:32.190Z,6.07
2019-05-09T13:14:29.715Z,4.29
2019-05-09T13:15:31.163Z,8.86
2019-05-09T13:16:44.296Z,7.40
2019-05-09T13:17:29.738Z,11.26
2019-05-09T13:18:29.855Z,11.40
2019-05-09T13:19:29.728Z,7.47
2019-05-09T13:20:29.777Z,3.89
2019-05-09T13:21:32.941Z,8.11
2019-05-09T13:22:29.783Z,5.88
2019-05-09T13:23:30.505Z,9.32
2019-05-09T13:24:29.915Z,11.78
2019-05-09T13:25:30.250Z,7.65
2019-05-09T13:26:29.952Z,7.22
2019-05-09T13:27:30.227Z,9.20
2019-05-09T13:28:29.728Z,12.60
2019-05-09T13:29:29.880Z,10.85
2019-05-09T13:30:29.711Z,12.99
2019-05-09T13:31:29.763Z,8.84
2019-05-09T13:32:29.757Z,9.54
2019-05-09T13:33:29.719Z,7.98